sensor_id;sensor_type;location;lat;lon;timestamp;P1;durP1;ratioP1;P2;durP2;ratioP2
11675;SDS011;5894;42.768;23.404;2023-12-20T00:01:00;110.87;;;50.33;;
11675;SDS011;5894;42.768;23.404;2023-12-20T00:03:27;126.50;;;54.90;;
11675;SDS011;5894;42.768;23.404;2023-12-20T00:05:55;117.40;;;51.57;;
11675;SDS011;5894;42.768;23.404;2023-12-20T00:08:22;107.33;;;48.67;;
11675;SDS011;5894;42.768;23.404;2023-12-20T00:10:49;112.33;;;48.50;;
11675;SDS011;5894;42.768;23.404;2023-12-20T00:13:16;120.93;;;50.73;;
11675;SDS011;5894;42.768;23.404;2023-12-20T00:15:43;105.17;;;49.47;;
11675;SDS011;5894;42.768;23.404;2023-12-20T00:18:10;100.07;;;47.00;;
11675;SDS011;5894;42.768;23.404;2023-12-20T00:20:37;102.67;;;47.13;;
11675;SDS011;5894;42.768;23.404;2023-12-20T00:23:07;90.03;;;43.40;;
11675;SDS011;5894;42.768;23.404;2023-12-20T00:25:34;79.10;;;41.23;;
11675;SDS011;5894;42.768;23.404;2023-12-20T00:28:01;82.50;;;40.47;;
11675;SDS011;5894;42.768;23.404;2023-12-20T00:30:29;74.50;;;39.60;;
11675;SDS011;5894;42.768;23.404;2023-12-20T00:32:56;74.13;;;38.63;;
11675;SDS011;5894;42.768;23.404;2023-12-20T00:35:23;70.83;;;38.03;;
11675;SDS011;5894;42.768;23.404;2023-12-20T00:37:50;64.60;;;36.77;;
11675;SDS011;5894;42.768;23.404;2023-12-20T00:40:18;63.93;;;36.40;;
11675;SDS011;5894;42.768;23.404;2023-12-20T00:42:46;65.37;;;37.53;;
11675;SDS011;5894;42.768;23.404;2023-12-20T00:45:13;58.90;;;35.50;;
11675;SDS011;5894;42.768;23.404;2023-12-20T00:47:40;84.50;;;37.33;;
11675;SDS011;5894;42.768;23.404;2023-12-20T00:50:08;63.73;;;36.73;;
11675;SDS011;5894;42.768;23.404;2023-12-20T00:52:35;62.40;;;36.87;;
11675;SDS011;5894;42.768;23.404;2023-12-20T00:55:03;63.30;;;36.13;;
11675;SDS011;5894;42.768;23.404;2023-12-20T00:57:32;62.07;;;37.67;;
11675;SDS011;5894;42.768;23.404;2023-12-20T00:59:59;60.83;;;36.87;;
11675;SDS011;5894;42.768;23.404;2023-12-20T01:02:26;64.47;;;37.33;;
11675;SDS011;5894;42.768;23.404;2023-12-20T01:04:53;62.80;;;36.80;;
11675;SDS011;5894;42.768;23.404;2023-12-20T01:07:20;68.23;;;37.73;;
11675;SDS011;5894;42.768;23.404;2023-12-20T01:09:46;99.53;;;42.97;;
11675;SDS011;5894;42.768;23.404;2023-12-20T01:12:13;108.87;;;47.80;;
11675;SDS011;5894;42.768;23.404;2023-12-20T01:14:42;83.83;;;43.63;;
11675;SDS011;5894;42.768;23.404;2023-12-20T01:17:08;76.00;;;41.80;;
11675;SDS011;5894;42.768;23.404;2023-12-20T01:19:35;77.23;;;41.40;;
11675;SDS011;5894;42.768;23.404;2023-12-20T01:22:03;74.73;;;40.00;;
11675;SDS011;5894;42.768;23.404;2023-12-20T01:24:30;72.83;;;41.40;;
11675;SDS011;5894;42.768;23.404;2023-12-20T01:26:57;78.00;;;41.53;;
11675;SDS011;5894;42.768;23.404;2023-12-20T01:29:24;78.63;;;40.90;;
11675;SDS011;5894;42.768;23.404;2023-12-20T01:31:53;75.20;;;41.03;;
11675;SDS011;5894;42.768;23.404;2023-12-20T01:34:20;76.33;;;41.00;;
11675;SDS011;5894;42.768;23.404;2023-12-20T01:36:47;81.00;;;41.63;;
11675;SDS011;5894;42.768;23.404;2023-12-20T01:39:14;77.17;;;40.80;;
11675;SDS011;5894;42.768;23.404;2023-12-20T01:41:41;75.60;;;41.00;;
11675;SDS011;5894;42.768;23.404;2023-12-20T01:44:08;78.57;;;40.17;;
11675;SDS011;5894;42.768;23.404;2023-12-20T01:46:35;75.47;;;40.57;;
11675;SDS011;5894;42.768;23.404;2023-12-20T01:49:03;70.40;;;38.53;;
11675;SDS011;5894;42.768;23.404;2023-12-20T01:51:30;70.47;;;38.37;;
11675;SDS011;5894;42.768;23.404;2023-12-20T01:53:58;68.33;;;36.10;;
11675;SDS011;5894;42.768;23.404;2023-12-20T01:56:26;63.10;;;33.67;;
11675;SDS011;5894;42.768;23.404;2023-12-20T01:58:56;61.40;;;33.57;;
11675;SDS011;5894;42.768;23.404;2023-12-20T02:01:24;57.33;;;34.53;;
11675;SDS011;5894;42.768;23.404;2023-12-20T02:03:53;64.83;;;35.13;;
11675;SDS011;5894;42.768;23.404;2023-12-20T02:06:22;64.83;;;33.77;;
11675;SDS011;5894;42.768;23.404;2023-12-20T02:08:51;61.30;;;34.60;;
11675;SDS011;5894;42.768;23.404;2023-12-20T02:11:17;68.33;;;36.77;;
11675;SDS011;5894;42.768;23.404;2023-12-20T02:13:45;69.87;;;37.30;;
11675;SDS011;5894;42.768;23.404;2023-12-20T02:16:12;71.53;;;38.53;;
11675;SDS011;5894;42.768;23.404;2023-12-20T02:18:39;71.17;;;39.30;;
11675;SDS011;5894;42.768;23.404;2023-12-20T02:21:06;73.33;;;39.10;;
11675;SDS011;5894;42.768;23.404;2023-12-20T02:23:34;73.90;;;39.20;;
11675;SDS011;5894;42.768;23.404;2023-12-20T02:26:01;69.07;;;39.13;;
11675;SDS011;5894;42.768;23.404;2023-12-20T02:28:29;76.17;;;39.23;;
11675;SDS011;5894;42.768;23.404;2023-12-20T02:30:57;68.23;;;38.00;;
11675;SDS011;5894;42.768;23.404;2023-12-20T02:33:24;65.43;;;36.50;;
11675;SDS011;5894;42.768;23.404;2023-12-20T02:35:51;69.07;;;38.30;;
11675;SDS011;5894;42.768;23.404;2023-12-20T02:38:19;66.33;;;37.30;;
11675;SDS011;5894;42.768;23.404;2023-12-20T02:40:47;66.87;;;36.00;;
11675;SDS011;5894;42.768;23.404;2023-12-20T02:43:14;62.07;;;34.47;;
11675;SDS011;5894;42.768;23.404;2023-12-20T02:45:41;64.57;;;35.47;;
11675;SDS011;5894;42.768;23.404;2023-12-20T02:48:08;58.80;;;34.63;;
11675;SDS011;5894;42.768;23.404;2023-12-20T02:50:35;61.37;;;35.27;;
11675;SDS011;5894;42.768;23.404;2023-12-20T02:53:02;59.13;;;34.00;;
11675;SDS011;5894;42.768;23.404;2023-12-20T02:55:29;57.30;;;33.87;;
11675;SDS011;5894;42.768;23.404;2023-12-20T02:57:57;64.87;;;34.80;;
11675;SDS011;5894;42.768;23.404;2023-12-20T03:00:24;61.37;;;34.97;;
11675;SDS011;5894;42.768;23.404;2023-12-20T03:02:51;61.73;;;34.10;;
11675;SDS011;5894;42.768;23.404;2023-12-20T03:05:18;60.40;;;34.83;;
11675;SDS011;5894;42.768;23.404;2023-12-20T03:07:46;64.10;;;35.37;;
11675;SDS011;5894;42.768;23.404;2023-12-20T03:10:13;62.40;;;34.47;;
11675;SDS011;5894;42.768;23.404;2023-12-20T03:12:40;62.17;;;35.10;;
11675;SDS011;5894;42.768;23.404;2023-12-20T03:15:08;58.70;;;34.93;;
11675;SDS011;5894;42.768;23.404;2023-12-20T03:17:36;56.60;;;33.43;;
11675;SDS011;5894;42.768;23.404;2023-12-20T03:20:04;54.43;;;31.77;;
11675;SDS011;5894;42.768;23.404;2023-12-20T03:22:32;56.70;;;33.57;;
11675;SDS011;5894;42.768;23.404;2023-12-20T03:24:59;64.73;;;34.70;;
11675;SDS011;5894;42.768;23.404;2023-12-20T03:27:26;57.70;;;32.70;;
11675;SDS011;5894;42.768;23.404;2023-12-20T03:29:53;58.57;;;34.03;;
11675;SDS011;5894;42.768;23.404;2023-12-20T03:32:21;57.07;;;32.37;;
11675;SDS011;5894;42.768;23.404;2023-12-20T03:34:48;56.90;;;33.30;;
11675;SDS011;5894;42.768;23.404;2023-12-20T03:37:15;70.30;;;33.43;;
11675;SDS011;5894;42.768;23.404;2023-12-20T03:39:42;60.63;;;34.10;;
11675;SDS011;5894;42.768;23.404;2023-12-20T03:42:09;97.53;;;34.70;;
11675;SDS011;5894;42.768;23.404;2023-12-20T03:44:38;56.77;;;32.53;;
11675;SDS011;5894;42.768;23.404;2023-12-20T03:47:05;66.60;;;34.03;;
11675;SDS011;5894;42.768;23.404;2023-12-20T03:49:33;57.10;;;31.77;;
11675;SDS011;5894;42.768;23.404;2023-12-20T03:52:02;62.20;;;32.57;;
11675;SDS011;5894;42.768;23.404;2023-12-20T03:54:29;53.23;;;30.80;;
11675;SDS011;5894;42.768;23.404;2023-12-20T03:56:56;54.37;;;30.97;;
11675;SDS011;5894;42.768;23.404;2023-12-20T03:59:23;60.93;;;32.30;;
11675;SDS011;5894;42.768;23.404;2023-12-20T04:01:50;51.53;;;30.77;;
11675;SDS011;5894;42.768;23.404;2023-12-20T04:04:18;56.47;;;32.70;;
11675;SDS011;5894;42.768;23.404;2023-12-20T04:06:46;137.70;;;34.30;;
11675;SDS011;5894;42.768;23.404;2023-12-20T04:09:13;51.80;;;31.87;;
11675;SDS011;5894;42.768;23.404;2023-12-20T04:11:40;66.17;;;32.50;;
11675;SDS011;5894;42.768;23.404;2023-12-20T04:14:06;59.80;;;33.30;;
11675;SDS011;5894;42.768;23.404;2023-12-20T04:16:34;57.93;;;32.87;;
11675;SDS011;5894;42.768;23.404;2023-12-20T04:19:01;67.63;;;36.53;;
11675;SDS011;5894;42.768;23.404;2023-12-20T04:21:28;113.40;;;36.73;;
11675;SDS011;5894;42.768;23.404;2023-12-20T04:23:56;58.23;;;34.30;;
11675;SDS011;5894;42.768;23.404;2023-12-20T04:26:23;58.33;;;35.33;;
11675;SDS011;5894;42.768;23.404;2023-12-20T04:28:50;62.13;;;34.37;;
11675;SDS011;5894;42.768;23.404;2023-12-20T04:31:17;57.60;;;31.67;;
11675;SDS011;5894;42.768;23.404;2023-12-20T04:33:44;53.03;;;31.20;;
11675;SDS011;5894;42.768;23.404;2023-12-20T04:36:11;56.27;;;32.63;;
11675;SDS011;5894;42.768;23.404;2023-12-20T04:38:38;61.97;;;32.53;;
11675;SDS011;5894;42.768;23.404;2023-12-20T04:41:07;53.23;;;30.57;;
11675;SDS011;5894;42.768;23.404;2023-12-20T04:43:34;54.73;;;30.40;;
11675;SDS011;5894;42.768;23.404;2023-12-20T04:46:00;80.57;;;32.33;;
11675;SDS011;5894;42.768;23.404;2023-12-20T04:48:27;91.97;;;29.97;;
11675;SDS011;5894;42.768;23.404;2023-12-20T04:50:54;55.63;;;27.73;;
11675;SDS011;5894;42.768;23.404;2023-12-20T04:53:21;43.73;;;27.20;;
11675;SDS011;5894;42.768;23.404;2023-12-20T04:55:48;50.80;;;26.43;;
11675;SDS011;5894;42.768;23.404;2023-12-20T04:58:17;83.40;;;28.40;;
11675;SDS011;5894;42.768;23.404;2023-12-20T05:00:43;86.40;;;28.83;;
11675;SDS011;5894;42.768;23.404;2023-12-20T05:03:11;69.60;;;29.53;;
11675;SDS011;5894;42.768;23.404;2023-12-20T05:05:38;70.00;;;29.20;;
11675;SDS011;5894;42.768;23.404;2023-12-20T05:08:05;44.60;;;25.90;;
11675;SDS011;5894;42.768;23.404;2023-12-20T05:10:32;45.33;;;27.33;;
11675;SDS011;5894;42.768;23.404;2023-12-20T05:13:00;45.93;;;27.07;;
11675;SDS011;5894;42.768;23.404;2023-12-20T05:15:28;55.27;;;29.07;;
11675;SDS011;5894;42.768;23.404;2023-12-20T05:17:55;45.00;;;25.87;;
11675;SDS011;5894;42.768;23.404;2023-12-20T05:20:22;50.60;;;25.93;;
11675;SDS011;5894;42.768;23.404;2023-12-20T05:22:49;47.40;;;24.40;;
11675;SDS011;5894;42.768;23.404;2023-12-20T05:25:16;41.10;;;25.03;;
11675;SDS011;5894;42.768;23.404;2023-12-20T05:27:44;38.20;;;23.87;;
11675;SDS011;5894;42.768;23.404;2023-12-20T05:30:11;40.13;;;24.30;;
11675;SDS011;5894;42.768;23.404;2023-12-20T05:32:40;40.57;;;24.77;;
11675;SDS011;5894;42.768;23.404;2023-12-20T05:35:07;48.17;;;27.20;;
11675;SDS011;5894;42.768;23.404;2023-12-20T05:37:34;42.50;;;26.03;;
11675;SDS011;5894;42.768;23.404;2023-12-20T05:40:01;43.40;;;26.20;;
11675;SDS011;5894;42.768;23.404;2023-12-20T05:42:29;46.30;;;26.43;;
11675;SDS011;5894;42.768;23.404;2023-12-20T05:44:56;42.67;;;26.50;;
11675;SDS011;5894;42.768;23.404;2023-12-20T05:47:23;45.90;;;26.87;;
11675;SDS011;5894;42.768;23.404;2023-12-20T05:49:53;47.63;;;26.63;;
11675;SDS011;5894;42.768;23.404;2023-12-20T05:52:20;48.90;;;27.07;;
11675;SDS011;5894;42.768;23.404;2023-12-20T05:54:47;50.80;;;27.47;;
11675;SDS011;5894;42.768;23.404;2023-12-20T05:57:14;43.57;;;25.60;;
11675;SDS011;5894;42.768;23.404;2023-12-20T05:59:41;45.03;;;27.13;;
11675;SDS011;5894;42.768;23.404;2023-12-20T06:02:09;54.27;;;32.73;;
11675;SDS011;5894;42.768;23.404;2023-12-20T06:04:36;46.20;;;29.40;;
11675;SDS011;5894;42.768;23.404;2023-12-20T06:07:04;45.30;;;26.70;;
11675;SDS011;5894;42.768;23.404;2023-12-20T06:09:31;48.93;;;28.13;;
11675;SDS011;5894;42.768;23.404;2023-12-20T06:11:58;47.83;;;28.57;;
11675;SDS011;5894;42.768;23.404;2023-12-20T06:14:26;48.47;;;28.40;;
11675;SDS011;5894;42.768;23.404;2023-12-20T06:16:53;44.53;;;27.83;;
11675;SDS011;5894;42.768;23.404;2023-12-20T06:19:20;45.13;;;27.37;;
11675;SDS011;5894;42.768;23.404;2023-12-20T06:21:47;42.90;;;25.77;;
11675;SDS011;5894;42.768;23.404;2023-12-20T06:24:15;43.30;;;26.70;;
11675;SDS011;5894;42.768;23.404;2023-12-20T06:26:42;43.17;;;25.57;;
11675;SDS011;5894;42.768;23.404;2023-12-20T06:29:09;41.03;;;25.67;;
11675;SDS011;5894;42.768;23.404;2023-12-20T06:31:36;44.77;;;26.30;;
11675;SDS011;5894;42.768;23.404;2023-12-20T06:34:03;45.97;;;26.73;;
11675;SDS011;5894;42.768;23.404;2023-12-20T06:36:30;45.93;;;27.97;;
11675;SDS011;5894;42.768;23.404;2023-12-20T06:38:57;48.40;;;28.53;;
11675;SDS011;5894;42.768;23.404;2023-12-20T06:41:25;45.23;;;27.37;;
11675;SDS011;5894;42.768;23.404;2023-12-20T06:43:52;44.20;;;27.70;;
11675;SDS011;5894;42.768;23.404;2023-12-20T06:46:19;42.07;;;26.17;;
11675;SDS011;5894;42.768;23.404;2023-12-20T06:48:46;38.33;;;24.87;;
11675;SDS011;5894;42.768;23.404;2023-12-20T06:51:14;47.80;;;25.60;;
11675;SDS011;5894;42.768;23.404;2023-12-20T06:53:42;43.17;;;25.43;;
11675;SDS011;5894;42.768;23.404;2023-12-20T06:56:09;42.03;;;24.77;;
11675;SDS011;5894;42.768;23.404;2023-12-20T06:58:43;40.70;;;23.97;;
11675;SDS011;5894;42.768;23.404;2023-12-20T07:01:11;38.13;;;23.87;;
11675;SDS011;5894;42.768;23.404;2023-12-20T07:03:38;56.33;;;23.97;;
11675;SDS011;5894;42.768;23.404;2023-12-20T07:06:05;46.83;;;24.53;;
11675;SDS011;5894;42.768;23.404;2023-12-20T07:08:32;43.70;;;25.17;;
11675;SDS011;5894;42.768;23.404;2023-12-20T07:10:59;47.97;;;26.10;;
11675;SDS011;5894;42.768;23.404;2023-12-20T07:13:26;45.57;;;25.50;;
11675;SDS011;5894;42.768;23.404;2023-12-20T07:15:54;87.67;;;28.73;;
11675;SDS011;5894;42.768;23.404;2023-12-20T07:18:21;45.03;;;26.10;;
11675;SDS011;5894;42.768;23.404;2023-12-20T07:20:48;49.77;;;27.97;;
11675;SDS011;5894;42.768;23.404;2023-12-20T07:23:15;49.40;;;28.00;;
11675;SDS011;5894;42.768;23.404;2023-12-20T07:25:42;49.77;;;28.23;;
11675;SDS011;5894;42.768;23.404;2023-12-20T07:28:09;58.30;;;30.30;;
11675;SDS011;5894;42.768;23.404;2023-12-20T07:30:36;61.90;;;33.00;;
11675;SDS011;5894;42.768;23.404;2023-12-20T07:33:04;61.57;;;31.03;;
11675;SDS011;5894;42.768;23.404;2023-12-20T07:35:34;52.63;;;28.67;;
11675;SDS011;5894;42.768;23.404;2023-12-20T07:38:01;67.80;;;28.43;;
11675;SDS011;5894;42.768;23.404;2023-12-20T07:40:28;53.20;;;28.17;;
11675;SDS011;5894;42.768;23.404;2023-12-20T07:42:55;51.77;;;27.80;;
11675;SDS011;5894;42.768;23.404;2023-12-20T07:45:23;50.20;;;28.03;;
11675;SDS011;5894;42.768;23.404;2023-12-20T07:47:50;50.83;;;28.37;;
11675;SDS011;5894;42.768;23.404;2023-12-20T07:50:18;51.43;;;28.23;;
11675;SDS011;5894;42.768;23.404;2023-12-20T07:52:45;54.43;;;28.40;;
11675;SDS011;5894;42.768;23.404;2023-12-20T07:55:12;52.43;;;28.63;;
11675;SDS011;5894;42.768;23.404;2023-12-20T07:57:39;51.50;;;28.10;;
11675;SDS011;5894;42.768;23.404;2023-12-20T08:00:06;52.53;;;29.10;;
11675;SDS011;5894;42.768;23.404;2023-12-20T08:02:34;59.90;;;28.00;;
11675;SDS011;5894;42.768;23.404;2023-12-20T08:05:01;51.77;;;27.83;;
11675;SDS011;5894;42.768;23.404;2023-12-20T08:07:30;62.83;;;30.33;;
11675;SDS011;5894;42.768;23.404;2023-12-20T08:09:57;68.80;;;32.57;;
11675;SDS011;5894;42.768;23.404;2023-12-20T08:12:24;78.90;;;33.57;;
11675;SDS011;5894;42.768;23.404;2023-12-20T08:14:52;87.03;;;33.87;;
11675;SDS011;5894;42.768;23.404;2023-12-20T08:17:19;76.03;;;35.50;;
11675;SDS011;5894;42.768;23.404;2023-12-20T08:19:48;70.57;;;34.50;;
11675;SDS011;5894;42.768;23.404;2023-12-20T08:22:15;69.37;;;35.53;;
11675;SDS011;5894;42.768;23.404;2023-12-20T08:24:43;66.10;;;33.90;;
11675;SDS011;5894;42.768;23.404;2023-12-20T08:27:10;75.70;;;33.97;;
11675;SDS011;5894;42.768;23.404;2023-12-20T08:29:37;64.07;;;34.20;;
11675;SDS011;5894;42.768;23.404;2023-12-20T08:32:04;64.03;;;33.17;;
11675;SDS011;5894;42.768;23.404;2023-12-20T08:34:32;70.87;;;33.83;;
11675;SDS011;5894;42.768;23.404;2023-12-20T08:36:59;63.57;;;33.00;;
11675;SDS011;5894;42.768;23.404;2023-12-20T08:39:25;66.10;;;32.63;;
11675;SDS011;5894;42.768;23.404;2023-12-20T08:41:54;60.83;;;32.17;;
11675;SDS011;5894;42.768;23.404;2023-12-20T08:44:21;60.43;;;32.33;;
11675;SDS011;5894;42.768;23.404;2023-12-20T08:46:48;68.97;;;32.30;;
11675;SDS011;5894;42.768;23.404;2023-12-20T08:49:15;64.97;;;33.03;;
11675;SDS011;5894;42.768;23.404;2023-12-20T08:51:42;67.70;;;33.33;;
11675;SDS011;5894;42.768;23.404;2023-12-20T08:54:09;62.73;;;31.90;;
11675;SDS011;5894;42.768;23.404;2023-12-20T08:56:38;65.23;;;33.53;;
11675;SDS011;5894;42.768;23.404;2023-12-20T08:59:06;62.67;;;31.07;;
11675;SDS011;5894;42.768;23.404;2023-12-20T09:01:34;60.10;;;31.00;;
11675;SDS011;5894;42.768;23.404;2023-12-20T09:04:06;64.70;;;31.37;;
11675;SDS011;5894;42.768;23.404;2023-12-20T09:06:33;61.23;;;30.50;;
11675;SDS011;5894;42.768;23.404;2023-12-20T09:08:59;62.23;;;30.53;;
11675;SDS011;5894;42.768;23.404;2023-12-20T09:11:26;60.30;;;31.03;;
11675;SDS011;5894;42.768;23.404;2023-12-20T09:13:53;59.73;;;31.30;;
11675;SDS011;5894;42.768;23.404;2023-12-20T09:16:21;57.67;;;30.50;;
11675;SDS011;5894;42.768;23.404;2023-12-20T09:18:48;58.33;;;28.90;;
11675;SDS011;5894;42.768;23.404;2023-12-20T09:21:15;70.80;;;31.50;;
11675;SDS011;5894;42.768;23.404;2023-12-20T09:23:42;75.10;;;33.13;;
11675;SDS011;5894;42.768;23.404;2023-12-20T09:26:09;65.27;;;33.17;;
11675;SDS011;5894;42.768;23.404;2023-12-20T09:28:36;66.73;;;33.83;;
11675;SDS011;5894;42.768;23.404;2023-12-20T09:31:04;70.77;;;35.13;;
11675;SDS011;5894;42.768;23.404;2023-12-20T09:33:33;92.17;;;34.27;;
11675;SDS011;5894;42.768;23.404;2023-12-20T09:36:00;73.40;;;35.17;;
11675;SDS011;5894;42.768;23.404;2023-12-20T09:38:27;70.77;;;36.00;;
11675;SDS011;5894;42.768;23.404;2023-12-20T09:40:54;72.37;;;36.80;;
11675;SDS011;5894;42.768;23.404;2023-12-20T09:43:21;76.83;;;34.97;;
11675;SDS011;5894;42.768;23.404;2023-12-20T09:45:52;73.17;;;35.80;;
11675;SDS011;5894;42.768;23.404;2023-12-20T09:48:20;77.13;;;35.83;;
11675;SDS011;5894;42.768;23.404;2023-12-20T09:50:49;69.37;;;36.43;;
11675;SDS011;5894;42.768;23.404;2023-12-20T09:53:16;74.07;;;36.77;;
11675;SDS011;5894;42.768;23.404;2023-12-20T09:55:45;75.73;;;35.87;;
11675;SDS011;5894;42.768;23.404;2023-12-20T09:58:13;72.60;;;37.33;;
11675;SDS011;5894;42.768;23.404;2023-12-20T10:00:40;71.63;;;36.80;;
11675;SDS011;5894;42.768;23.404;2023-12-20T10:03:07;81.03;;;37.60;;
11675;SDS011;5894;42.768;23.404;2023-12-20T10:05:35;74.53;;;37.23;;
11675;SDS011;5894;42.768;23.404;2023-12-20T10:08:04;80.67;;;39.40;;
11675;SDS011;5894;42.768;23.404;2023-12-20T10:10:31;84.33;;;40.37;;
11675;SDS011;5894;42.768;23.404;2023-12-20T10:13:01;91.83;;;42.50;;
11675;SDS011;5894;42.768;23.404;2023-12-20T10:15:30;92.20;;;43.47;;
11675;SDS011;5894;42.768;23.404;2023-12-20T10:17:57;91.53;;;42.73;;
11675;SDS011;5894;42.768;23.404;2023-12-20T10:20:24;72.70;;;34.83;;
11675;SDS011;5894;42.768;23.404;2023-12-20T10:22:53;75.77;;;37.80;;
11675;SDS011;5894;42.768;23.404;2023-12-20T10:25:22;83.00;;;35.27;;
11675;SDS011;5894;42.768;23.404;2023-12-20T10:27:50;78.37;;;34.70;;
11675;SDS011;5894;42.768;23.404;2023-12-20T10:30:34;73.13;;;35.33;;
11675;SDS011;5894;42.768;23.404;2023-12-20T10:33:01;78.37;;;35.97;;
11675;SDS011;5894;42.768;23.404;2023-12-20T10:35:28;76.83;;;36.50;;
11675;SDS011;5894;42.768;23.404;2023-12-20T10:37:56;74.33;;;36.77;;
11675;SDS011;5894;42.768;23.404;2023-12-20T10:40:26;82.87;;;40.30;;
11675;SDS011;5894;42.768;23.404;2023-12-20T10:42:56;79.70;;;37.93;;
11675;SDS011;5894;42.768;23.404;2023-12-20T10:45:24;71.70;;;38.77;;
11675;SDS011;5894;42.768;23.404;2023-12-20T10:47:51;87.53;;;42.87;;
11675;SDS011;5894;42.768;23.404;2023-12-20T10:50:19;90.67;;;42.60;;
11675;SDS011;5894;42.768;23.404;2023-12-20T10:52:46;101.40;;;48.70;;
11675;SDS011;5894;42.768;23.404;2023-12-20T10:55:14;106.33;;;49.97;;
11675;SDS011;5894;42.768;23.404;2023-12-20T10:57:42;100.27;;;47.20;;
11675;SDS011;5894;42.768;23.404;2023-12-20T11:00:16;87.67;;;42.70;;
11675;SDS011;5894;42.768;23.404;2023-12-20T11:02:44;74.17;;;37.80;;
11675;SDS011;5894;42.768;23.404;2023-12-20T11:05:19;74.77;;;37.63;;
11675;SDS011;5894;42.768;23.404;2023-12-20T11:07:57;71.07;;;35.77;;
11675;SDS011;5894;42.768;23.404;2023-12-20T11:10:31;66.17;;;36.03;;
11675;SDS011;5894;42.768;23.404;2023-12-20T11:13:06;70.67;;;34.33;;
11675;SDS011;5894;42.768;23.404;2023-12-20T11:15:37;65.93;;;35.23;;
11675;SDS011;5894;42.768;23.404;2023-12-20T11:18:04;74.17;;;36.87;;
11675;SDS011;5894;42.768;23.404;2023-12-20T11:20:35;74.00;;;38.53;;
11675;SDS011;5894;42.768;23.404;2023-12-20T11:23:04;73.00;;;36.63;;
11675;SDS011;5894;42.768;23.404;2023-12-20T11:25:35;70.40;;;36.20;;
11675;SDS011;5894;42.768;23.404;2023-12-20T11:28:15;73.73;;;37.03;;
11675;SDS011;5894;42.768;23.404;2023-12-20T11:30:47;75.10;;;37.37;;
11675;SDS011;5894;42.768;23.404;2023-12-20T11:33:16;67.63;;;36.17;;
11675;SDS011;5894;42.768;23.404;2023-12-20T11:35:44;72.13;;;37.43;;
11675;SDS011;5894;42.768;23.404;2023-12-20T11:38:13;78.87;;;37.60;;
11675;SDS011;5894;42.768;23.404;2023-12-20T11:40:41;75.10;;;38.23;;
11675;SDS011;5894;42.768;23.404;2023-12-20T11:43:08;80.80;;;38.30;;
11675;SDS011;5894;42.768;23.404;2023-12-20T11:45:37;92.27;;;45.93;;
11675;SDS011;5894;42.768;23.404;2023-12-20T11:48:15;107.20;;;49.77;;
11675;SDS011;5894;42.768;23.404;2023-12-20T11:50:42;99.20;;;44.97;;
11675;SDS011;5894;42.768;23.404;2023-12-20T11:53:09;84.50;;;40.40;;
11675;SDS011;5894;42.768;23.404;2023-12-20T11:55:37;86.63;;;42.70;;
11675;SDS011;5894;42.768;23.404;2023-12-20T11:58:03;93.20;;;46.17;;
11675;SDS011;5894;42.768;23.404;2023-12-20T12:00:31;101.37;;;46.60;;
11675;SDS011;5894;42.768;23.404;2023-12-20T12:02:59;103.10;;;46.90;;
11675;SDS011;5894;42.768;23.404;2023-12-20T12:05:28;103.60;;;48.03;;
11675;SDS011;5894;42.768;23.404;2023-12-20T12:07:57;96.40;;;45.27;;
11675;SDS011;5894;42.768;23.404;2023-12-20T12:10:24;81.30;;;40.77;;
11675;SDS011;5894;42.768;23.404;2023-12-20T12:12:51;93.17;;;42.60;;
11675;SDS011;5894;42.768;23.404;2023-12-20T12:15:18;98.77;;;44.87;;
11675;SDS011;5894;42.768;23.404;2023-12-20T12:17:52;86.97;;;40.63;;
11675;SDS011;5894;42.768;23.404;2023-12-20T12:20:21;103.53;;;41.63;;
11675;SDS011;5894;42.768;23.404;2023-12-20T12:22:56;83.07;;;39.30;;
11675;SDS011;5894;42.768;23.404;2023-12-20T12:25:24;112.07;;;45.97;;
11675;SDS011;5894;42.768;23.404;2023-12-20T12:27:51;104.00;;;39.13;;
11675;SDS011;5894;42.768;23.404;2023-12-20T12:30:18;68.73;;;35.33;;
11675;SDS011;5894;42.768;23.404;2023-12-20T12:32:45;108.73;;;32.87;;
11675;SDS011;5894;42.768;23.404;2023-12-20T12:35:13;111.43;;;32.53;;
11675;SDS011;5894;42.768;23.404;2023-12-20T12:37:42;73.10;;;34.57;;
11675;SDS011;5894;42.768;23.404;2023-12-20T12:40:10;84.33;;;34.77;;
11675;SDS011;5894;42.768;23.404;2023-12-20T12:42:38;73.97;;;36.13;;
11675;SDS011;5894;42.768;23.404;2023-12-20T12:45:06;74.93;;;35.37;;
11675;SDS011;5894;42.768;23.404;2023-12-20T12:47:33;116.67;;;48.53;;
11675;SDS011;5894;42.768;23.404;2023-12-20T12:50:01;144.53;;;57.27;;
11675;SDS011;5894;42.768;23.404;2023-12-20T12:52:28;105.43;;;48.70;;
11675;SDS011;5894;42.768;23.404;2023-12-20T12:54:56;101.00;;;44.47;;
11675;SDS011;5894;42.768;23.404;2023-12-20T12:57:23;102.70;;;45.73;;
11675;SDS011;5894;42.768;23.404;2023-12-20T12:59:50;104.47;;;48.60;;
11675;SDS011;5894;42.768;23.404;2023-12-20T13:02:17;100.83;;;45.10;;
11675;SDS011;5894;42.768;23.404;2023-12-20T13:04:44;116.50;;;47.13;;
11675;SDS011;5894;42.768;23.404;2023-12-20T13:07:11;92.20;;;43.30;;
11675;SDS011;5894;42.768;23.404;2023-12-20T13:09:39;90.97;;;41.07;;
11675;SDS011;5894;42.768;23.404;2023-12-20T13:12:08;121.50;;;47.97;;
11675;SDS011;5894;42.768;23.404;2023-12-20T13:14:35;123.37;;;53.93;;
11675;SDS011;5894;42.768;23.404;2023-12-20T13:17:03;111.10;;;49.93;;
11675;SDS011;5894;42.768;23.404;2023-12-20T13:19:31;105.23;;;45.70;;
11675;SDS011;5894;42.768;23.404;2023-12-20T13:21:58;114.30;;;41.87;;
11675;SDS011;5894;42.768;23.404;2023-12-20T13:24:25;84.33;;;39.33;;
11675;SDS011;5894;42.768;23.404;2023-12-20T13:26:52;82.73;;;39.43;;
11675;SDS011;5894;42.768;23.404;2023-12-20T13:29:20;84.63;;;41.13;;
11675;SDS011;5894;42.768;23.404;2023-12-20T13:31:48;85.90;;;41.90;;
11675;SDS011;5894;42.768;23.404;2023-12-20T13:34:15;92.13;;;43.70;;
11675;SDS011;5894;42.768;23.404;2023-12-20T13:36:43;87.87;;;42.53;;
11675;SDS011;5894;42.768;23.404;2023-12-20T13:39:13;96.60;;;43.57;;
11675;SDS011;5894;42.768;23.404;2023-12-20T13:41:40;92.70;;;44.07;;
11675;SDS011;5894;42.768;23.404;2023-12-20T13:44:07;106.43;;;48.60;;
11675;SDS011;5894;42.768;23.404;2023-12-20T13:46:36;146.43;;;61.40;;
11675;SDS011;5894;42.768;23.404;2023-12-20T13:49:03;128.30;;;54.90;;
11675;SDS011;5894;42.768;23.404;2023-12-20T13:51:30;120.10;;;54.10;;
11675;SDS011;5894;42.768;23.404;2023-12-20T13:53:57;112.73;;;52.70;;
11675;SDS011;5894;42.768;23.404;2023-12-20T13:56:24;114.57;;;52.33;;
11675;SDS011;5894;42.768;23.404;2023-12-20T13:58:52;121.43;;;54.60;;
11675;SDS011;5894;42.768;23.404;2023-12-20T14:01:18;123.03;;;53.30;;
11675;SDS011;5894;42.768;23.404;2023-12-20T14:03:47;116.33;;;51.10;;
11675;SDS011;5894;42.768;23.404;2023-12-20T14:06:14;114.67;;;50.30;;
11675;SDS011;5894;42.768;23.404;2023-12-20T14:08:41;105.20;;;48.50;;
11675;SDS011;5894;42.768;23.404;2023-12-20T14:11:08;89.57;;;45.07;;
11675;SDS011;5894;42.768;23.404;2023-12-20T14:13:40;91.97;;;43.90;;
11675;SDS011;5894;42.768;23.404;2023-12-20T14:16:09;90.27;;;43.77;;
11675;SDS011;5894;42.768;23.404;2023-12-20T14:18:36;91.33;;;44.90;;
11675;SDS011;5894;42.768;23.404;2023-12-20T14:21:04;101.70;;;48.50;;